Brad Bennink — WDD4338 — position and weather

sailwx.info

Track history (hours):
 
Tides and Currents Weather Stations Pressure Air Temp Water Temp Dewpoint Dewpoint Depression Visibility Wind Speed Wind Dir Waves Ship Positions

Brad Bennink

Owner: American Commercial Lines LLC, Jeffersonville, IN. More information available from US FCC via Universal Licensing System and Coast Guard Vessel Documentation Center.

Last reported at 2018-Feb-16 03:07 UTC. Time now 2018-Feb-20 19:57 UTC.
Position N 38°39' W 090°11'.

Length 39 m; draft 2.9 m.

Type: Towing. MMSI: 367143450.

Date/timePositionNaut miles runAvg speedWind from/ knotsBaromVisibWave heightAir tempDewpointWater temp
2018-Feb-16 03:07N 38°39' W 090°11'1 7.0
2018-Feb-16 02:59N 38°40' W 090°11'8 2.7
2018-Feb-16 00:04N 38°48' W 090°07'0 5.6
2018-Feb-16 00:00N 38°48' W 090°07'1 3.0
2018-Feb-15 23:30N 38°50' W 090°07'0 0.3
2018-Feb-15 22:59N 38°50' W 090°07'0 0.0
2018-Feb-15 22:22N 38°50' W 090°07'0 0.2
2018-Feb-15 22:00N 38°50' W 090°07'1 2.6
2018-Feb-15 21:30N 38°51' W 090°07'2 4.2
2018-Feb-15 21:00N 38°52' W 090°09'0 0.1
2018-Feb-15 20:30N 38°52' W 090°09'0 0.2
2018-Feb-15 20:00N 38°52' W 090°09'0 0.0
2018-Feb-15 19:30N 38°52' W 090°09'0 0.4
2018-Feb-15 19:00N 38°52' W 090°09'0 0.7
2018-Feb-15 18:30N 38°53' W 090°10'2 4.7
2018-Feb-15 18:00N 38°54' W 090°12'1 2.1
2018-Feb-15 17:30N 38°55' W 090°13'1 1.7
2018-Feb-15 17:00N 38°55' W 090°14'2 4.3
2018-Feb-15 16:30N 38°55' W 090°17'3 5.4
2018-Feb-15 16:00N 38°56' W 090°20'3 5.5
2018-Feb-15 15:30N 38°58' W 090°23'1 2.0
2018-Feb-15 15:00N 38°58' W 090°24'0 0.1
2018-Feb-15 14:30N 38°58' W 090°24'0 0.0
2018-Feb-15 14:00N 38°58' W 090°24'0 0.0
2018-Feb-15 13:30N 38°58' W 090°24'0 0.0
2018-Feb-15 13:00N 38°58' W 090°24'0 0.0
2018-Feb-15 12:30N 38°58' W 090°24'0 0.0
2018-Feb-15 11:59N 38°58' W 090°24'0 0.0
2018-Feb-15 11:30N 38°58' W 090°24'0 0.0
2018-Feb-15 10:57N 38°58' W 090°24'0 0.7
2018-Feb-15 10:30N 38°58' W 090°25'2 3.3
2018-Feb-15 09:50N 38°58' W 090°28'2 4.6
2018-Feb-15 09:30N 38°58' W 090°30'2 3.9
2018-Feb-15 09:00N 38°57' W 090°32'1 2.9
2018-Feb-15 08:30N 38°59' W 090°33'0 0.0
2018-Feb-15 07:19N 38°59' W 090°33'0 0.0
2018-Feb-15 07:00N 38°59' W 090°33'0 0.0
2018-Feb-15 06:29N 38°59' W 090°33'0 0.3
2018-Feb-15 05:41N 38°59' W 090°33'1 3.9
2018-Feb-15 05:28N 38°59' W 090°34'  
2018-Feb-10 02:36N 39°11' W 090°36'0 3.3
2018-Feb-10 02:30N 39°11' W 090°36'2 3.9
2018-Feb-10 01:59N 39°09' W 090°37'3 4.0
2018-Feb-10 01:09N 39°06' W 090°36'2 4.0
2018-Feb-10 00:46N 39°04' W 090°35'2 3.0
2018-Feb-10 00:05N 39°02' W 090°35'0 3.7
2018-Feb-09 23:57N 39°02' W 090°34'2 3.8
2018-Feb-09 23:30N 38°60' W 090°34'3 3.9
2018-Feb-09 22:46N 38°58' W 090°32'0 4.0
2018-Feb-09 22:46N 38°58' W 090°32'20 2.3
2018-Feb-09 14:01N 38°52' W 090°08'0 0.2
2018-Feb-09 11:01N 38°51' W 090°08'0 0.0
2018-Feb-09 10:31N 38°51' W 090°08'0 0.0
2018-Feb-09 07:01N 38°51' W 090°08'  
Track history (hours):
 
Tides and Currents Weather Stations Pressure Air Temp Water Temp Dewpoint Dewpoint Depression Visibility Wind Speed Wind Dir Waves Ship Positions

Brad Bennink

Owner: American Commercial Lines LLC, Jeffersonville, IN. More information available from US FCC via Universal Licensing System and Coast Guard Vessel Documentation Center.

Last reported at 2018-Feb-16 03:07 UTC. Time now 2018-Feb-20 19:57 UTC.
Position N 38°39' W 090°11'.

Length 39 m; draft 2.9 m.

Type: Towing. MMSI: 367143450.

Date/timePositionNaut miles runAvg speedWind from/ knotsBaromVisibWave heightAir tempDewpointWater temp
2018-Feb-16 03:07N 38°39' W 090°11'1 7.0
2018-Feb-16 02:59N 38°40' W 090°11'8 2.7
2018-Feb-16 00:04N 38°48' W 090°07'0 5.6
2018-Feb-16 00:00N 38°48' W 090°07'1 3.0
2018-Feb-15 23:30N 38°50' W 090°07'0 0.3
2018-Feb-15 22:59N 38°50' W 090°07'0 0.0
2018-Feb-15 22:22N 38°50' W 090°07'0 0.2
2018-Feb-15 22:00N 38°50' W 090°07'1 2.6
2018-Feb-15 21:30N 38°51' W 090°07'2 4.2
2018-Feb-15 21:00N 38°52' W 090°09'0 0.1
2018-Feb-15 20:30N 38°52' W 090°09'0 0.2
2018-Feb-15 20:00N 38°52' W 090°09'0 0.0
2018-Feb-15 19:30N 38°52' W 090°09'0 0.4
2018-Feb-15 19:00N 38°52' W 090°09'0 0.7
2018-Feb-15 18:30N 38°53' W 090°10'2 4.7
2018-Feb-15 18:00N 38°54' W 090°12'1 2.1
2018-Feb-15 17:30N 38°55' W 090°13'1 1.7
2018-Feb-15 17:00N 38°55' W 090°14'2 4.3
2018-Feb-15 16:30N 38°55' W 090°17'3 5.4
2018-Feb-15 16:00N 38°56' W 090°20'3 5.5
2018-Feb-15 15:30N 38°58' W 090°23'1 2.0
2018-Feb-15 15:00N 38°58' W 090°24'0 0.1
2018-Feb-15 14:30N 38°58' W 090°24'0 0.0
2018-Feb-15 14:00N 38°58' W 090°24'0 0.0
2018-Feb-15 13:30N 38°58' W 090°24'0 0.0
2018-Feb-15 13:00N 38°58' W 090°24'0 0.0
2018-Feb-15 12:30N 38°58' W 090°24'0 0.0
2018-Feb-15 11:59N 38°58' W 090°24'0 0.0
2018-Feb-15 11:30N 38°58' W 090°24'0 0.0
2018-Feb-15 10:57N 38°58' W 090°24'0 0.7
2018-Feb-15 10:30N 38°58' W 090°25'2 3.3
2018-Feb-15 09:50N 38°58' W 090°28'2 4.6
2018-Feb-15 09:30N 38°58' W 090°30'2 3.9
2018-Feb-15 09:00N 38°57' W 090°32'1 2.9
2018-Feb-15 08:30N 38°59' W 090°33'0 0.0
2018-Feb-15 07:19N 38°59' W 090°33'0 0.0
2018-Feb-15 07:00N 38°59' W 090°33'0 0.0
2018-Feb-15 06:29N 38°59' W 090°33'0 0.3
2018-Feb-15 05:41N 38°59' W 090°33'1 3.9
2018-Feb-15 05:28N 38°59' W 090°34'  
2018-Feb-10 02:36N 39°11' W 090°36'0 3.3
2018-Feb-10 02:30N 39°11' W 090°36'2 3.9
2018-Feb-10 01:59N 39°09' W 090°37'3 4.0
2018-Feb-10 01:09N 39°06' W 090°36'2 4.0
2018-Feb-10 00:46N 39°04' W 090°35'2 3.0
2018-Feb-10 00:05N 39°02' W 090°35'0 3.7
2018-Feb-09 23:57N 39°02' W 090°34'2 3.8
2018-Feb-09 23:30N 38°60' W 090°34'3 3.9
2018-Feb-09 22:46N 38°58' W 090°32'0 4.0
2018-Feb-09 22:46N 38°58' W 090°32'20 2.3
2018-Feb-09 14:01N 38°52' W 090°08'0 0.2
2018-Feb-09 11:01N 38°51' W 090°08'0 0.0
2018-Feb-09 10:31N 38°51' W 090°08'0 0.0
2018-Feb-09 07:01N 38°51' W 090°08'  

Dump ship's entire track history